Time;durP1;ratioP1;P1;durP2;ratioP2;P2;SDS_P1;SDS_P2;PMS_P1;PMS_P2;Temp;Humidity;BMP_temperature;BMP_pressure;BME280_temperature;BME280_humidity;BME280_pressure;Samples;Min_cycle;Max_cycle;Signal;HPM_P1;HPM_P2
2021/06/18 00:00:13;;;;;;;16.15;7.55;;;17.70;72.00;;;;;;4948904;28;20032;-75
2021/06/18 00:02:39;;;;;;;13.10;7.30;;;17.70;71.50;;;;;;4962007;28;20082;-75
2021/06/18 00:05:10;;;;;;;16.83;7.45;;;17.80;70.70;;;;;;4960518;29;20039;-75
2021/06/18 00:07:36;;;;;;;16.92;9.77;;;17.80;70.70;;;;;;4961956;28;20026;-75
2021/06/18 00:10:05;;;;;;;18.50;8.95;;;17.80;72.80;;;;;;4960438;29;20031;-75
2021/06/18 00:12:31;;;;;;;18.23;9.18;;;17.80;71.60;;;;;;4960587;29;20024;-75
2021/06/18 00:14:59;;;;;;;17.40;9.10;;;17.80;73.40;;;;;;4961683;28;20836;-75
2021/06/18 00:17:26;;;;;;;18.17;9.50;;;17.80;72.60;;;;;;4961737;28;20090;-75
2021/06/18 00:19:52;;;;;;;18.08;9.40;;;17.80;71.70;;;;;;4961590;28;20079;-75
2021/06/18 00:22:19;;;;;;;16.23;8.25;;;17.70;72.20;;;;;;4961615;28;20026;-75
2021/06/18 00:24:44;;;;;;;18.17;9.13;;;17.80;71.60;;;;;;4961066;28;20059;-75
2021/06/18 00:27:10;;;;;;;18.45;9.70;;;17.80;71.60;;;;;;4961562;28;20095;-75
2021/06/18 00:29:36;;;;;;;18.48;9.75;;;17.70;72.70;;;;;;4947152;29;20042;-75
2021/06/18 00:32:03;;;;;;;18.38;10.15;;;17.80;73.10;;;;;;4961592;28;20027;-75
2021/06/18 00:34:28;;;;;;;16.92;9.13;;;17.70;72.50;;;;;;4957692;28;20058;-75
2021/06/18 00:36:54;;;;;;;17.58;9.48;;;17.70;72.70;;;;;;4960003;29;20023;-75
2021/06/18 00:39:20;;;;;;;25.48;12.15;;;17.70;74.10;;;;;;4961020;28;20482;-75
2021/06/18 00:41:46;;;;;;;23.13;12.85;;;17.70;73.50;;;;;;4961108;28;20066;-75
2021/06/18 00:44:12;;;;;;;21.42;11.43;;;17.70;74.60;;;;;;4961014;28;20086;-75
2021/06/18 00:46:38;;;;;;;22.65;11.55;;;17.60;73.90;;;;;;4961221;28;20016;-75
2021/06/18 00:49:03;;;;;;;24.98;11.40;;;17.70;74.00;;;;;;4961026;28;20390;-75
2021/06/18 00:51:30;;;;;;;22.58;11.57;;;17.70;74.70;;;;;;4960848;28;20050;-75
2021/06/18 00:53:56;;;;;;;28.63;11.20;;;17.60;73.30;;;;;;4955506;29;20036;-75
2021/06/18 00:56:22;;;;;;;23.13;10.88;;;17.60;74.10;;;;;;4953586;29;20027;-74
2021/06/18 00:58:48;;;;;;;22.17;11.13;;;17.60;73.40;;;;;;4951401;28;20036;-75
2021/06/18 01:01:15;;;;;;;18.10;9.95;;;17.60;73.70;;;;;;4951901;29;20038;-75
2021/06/18 01:03:41;;;;;;;21.83;10.32;;;17.60;73.40;;;;;;4947970;29;20019;-75
2021/06/18 01:06:11;;;;;;;25.88;10.70;;;17.60;74.90;;;;;;4960889;28;20027;-75
2021/06/18 01:08:46;;;;;;;19.08;11.18;;;17.60;73.90;;;;;;4960630;28;20034;-75
2021/06/18 01:11:17;;;;;;;24.08;11.57;;;17.50;74.90;;;;;;4960677;28;20414;-75
2021/06/18 01:14:02;;;;;;;22.23;11.35;;;17.50;74.90;;;;;;4947550;29;20043;-75
2021/06/18 01:16:33;;;;;;;18.65;10.88;;;17.50;74.00;;;;;;4960454;28;20023;-75
2021/06/18 01:19:08;;;;;;;23.57;12.23;;;17.50;73.60;;;;;;4960622;28;20035;-75
2021/06/18 01:21:46;;;;;;;21.17;12.40;;;17.60;74.20;;;;;;4960442;28;20034;-75
2021/06/18 01:24:31;;;;;;;26.65;12.82;;;17.50;74.60;;;;;;4960272;28;20089;-75
2021/06/18 01:27:19;;;;;;;23.90;13.27;;;17.50;73.80;;;;;;4949829;29;20031;-75
2021/06/18 01:30:16;;;;;;;28.63;12.82;;;17.50;75.30;;;;;;4960220;28;20026;-75
2021/06/18 01:32:53;;;;;;;26.80;12.38;;;17.50;74.50;;;;;;4943567;28;20094;-75
2021/06/18 01:35:20;;;;;;;28.00;12.55;;;17.50;73.60;;;;;;4955804;29;20106;-75
2021/06/18 01:37:54;;;;;;;25.90;13.98;;;17.50;73.60;;;;;;4959953;28;20549;-75
2021/06/18 01:40:22;;;;;;;27.42;12.30;;;17.50;74.40;;;;;;4960029;28;20054;-75
2021/06/18 01:42:50;;;;;;;22.85;12.25;;;17.40;73.60;;;;;;4959885;29;20422;-74
2021/06/18 01:45:18;;;;;;;20.42;11.02;;;17.40;73.50;;;;;;4958781;29;20105;-74
2021/06/18 01:47:45;;;;;;;21.35;11.50;;;17.40;72.80;;;;;;4947681;29;20027;-75
2021/06/18 01:50:17;;;;;;;23.58;11.85;;;17.40;73.30;;;;;;4959923;28;20046;-75
2021/06/18 01:52:48;;;;;;;26.98;13.80;;;17.40;73.90;;;;;;4960162;28;20023;-75
2021/06/18 01:55:16;;;;;;;31.83;14.35;;;17.40;75.50;;;;;;4959567;28;20096;-75
2021/06/18 01:57:42;;;;;;;31.60;16.88;;;17.40;75.20;;;;;;4957039;28;20027;-74
2021/06/18 02:00:09;;;;;;;35.05;16.40;;;17.40;76.10;;;;;;4944262;29;20024;-74
2021/06/18 02:02:36;;;;;;;28.10;14.52;;;17.30;75.20;;;;;;4959347;28;20106;-75
2021/06/18 02:05:07;;;;;;;27.15;13.80;;;17.30;74.60;;;;;;4958331;29;20114;-75
2021/06/18 02:07:35;;;;;;;28.30;14.10;;;17.30;74.90;;;;;;4959793;28;20541;-75
2021/06/18 02:10:07;;;;;;;30.10;15.50;;;17.30;74.10;;;;;;4958007;29;20019;-74
2021/06/18 02:12:35;;;;;;;25.05;15.13;;;17.30;75.50;;;;;;4959793;28;20471;-74
2021/06/18 02:15:01;;;;;;;27.75;15.05;;;17.30;74.50;;;;;;4959564;28;20406;-75
2021/06/18 02:17:28;;;;;;;23.23;13.98;;;17.30;73.50;;;;;;4959601;28;20063;-74
2021/06/18 02:19:56;;;;;;;26.60;14.98;;;17.30;74.30;;;;;;4959483;28;20059;-74
2021/06/18 02:22:23;;;;;;;32.08;14.68;;;17.30;73.50;;;;;;4959563;28;20031;-74
2021/06/18 02:24:51;;;;;;;22.85;14.48;;;17.30;73.40;;;;;;4959103;28;20038;-74
2021/06/18 02:27:18;;;;;;;28.67;14.32;;;17.30;73.10;;;;;;4959440;28;20079;-74
2021/06/18 02:29:44;;;;;;;28.15;14.90;;;17.30;73.20;;;;;;4959363;28;20051;-75
2021/06/18 02:32:12;;;;;;;25.48;14.00;;;17.30;76.80;;;;;;4959468;28;20501;-75
2021/06/18 02:34:39;;;;;;;25.70;14.20;;;17.40;74.40;;;;;;4952201;29;20098;-75
2021/06/18 02:37:06;;;;;;;24.60;13.85;;;17.40;74.70;;;;;;4952159;29;20031;-75
2021/06/18 02:39:32;;;;;;;25.75;14.30;;;17.40;75.20;;;;;;4958859;28;20028;-75
2021/06/18 02:41:58;;;;;;;28.83;15.00;;;17.40;75.20;;;;;;4959160;29;20047;-75
2021/06/18 02:44:24;;;;;;;24.35;13.07;;;17.30;74.80;;;;;;4959025;28;20494;-75
2021/06/18 02:47:02;;;;;;;23.83;13.18;;;17.30;75.50;;;;;;4957977;29;20031;-75
2021/06/18 02:49:45;;;;;;;26.27;12.20;;;17.30;75.20;;;;;;4948103;29;20054;-74
2021/06/18 02:52:25;;;;;;;22.85;11.25;;;17.30;75.10;;;;;;4959149;28;20023;-75
2021/06/18 02:55:16;;;;;;;20.45;11.05;;;17.30;74.90;;;;;;4958910;28;20034;-75
2021/06/18 02:57:56;;;;;;;20.83;10.55;;;17.30;74.20;;;;;;4945560;29;20047;-75
2021/06/18 03:00:23;;;;;;;18.70;10.13;;;17.30;75.20;;;;;;4945104;29;20027;-75
2021/06/18 03:02:54;;;;;;;20.38;11.63;;;17.30;74.60;;;;;;4959145;28;20106;-75
2021/06/18 03:05:23;;;;;;;19.20;11.65;;;17.30;74.80;;;;;;4958894;28;20035;-75
2021/06/18 03:08:03;;;;;;;19.60;11.57;;;17.30;76.60;;;;;;4959100;28;20027;-75
2021/06/18 03:10:40;;;;;;;19.63;11.70;;;17.30;77.40;;;;;;4946241;29;20023;-74
2021/06/18 03:13:30;;;;;;;16.90;10.07;;;17.30;78.70;;;;;;4958990;28;20111;-74
2021/06/18 03:15:57;;;;;;;17.98;9.10;;;17.30;78.80;;;;;;4963083;28;20023;-75
2021/06/18 03:18:25;;;;;;;18.77;9.60;;;17.30;78.00;;;;;;4962668;28;20486;-74
2021/06/18 03:20:53;;;;;;;17.20;9.55;;;17.20;78.40;;;;;;4961489;29;20051;-75
2021/06/18 03:23:21;;;;;;;17.02;8.98;;;17.30;77.60;;;;;;4961287;29;20033;-75
2021/06/18 03:25:48;;;;;;;15.98;9.20;;;17.30;77.70;;;;;;4960986;29;20031;-75
2021/06/18 03:28:16;;;;;;;14.50;8.88;;;17.30;76.60;;;;;;4962703;28;20027;-75
2021/06/18 03:30:47;;;;;;;15.82;8.52;;;17.30;77.60;;;;;;4962471;28;20027;-74
2021/06/18 03:33:13;;;;;;;14.57;8.40;;;17.20;78.20;;;;;;4962383;28;20027;-74
2021/06/18 03:35:40;;;;;;;17.58;8.13;;;17.20;79.30;;;;;;4958745;28;20028;-75
2021/06/18 03:38:08;;;;;;;17.60;8.52;;;17.20;77.50;;;;;;4962497;28;20029;-74
2021/06/18 03:40:35;;;;;;;15.70;8.07;;;17.20;78.00;;;;;;4961930;28;20059;-75
2021/06/18 03:43:01;;;;;;;13.05;8.02;;;17.20;78.20;;;;;;4962246;28;20047;-75
2021/06/18 03:45:27;;;;;;;12.43;6.85;;;17.20;79.00;;;;;;4962154;28;20486;-74
2021/06/18 03:47:54;;;;;;;11.70;7.00;;;17.20;78.70;;;;;;4960942;29;20027;-75
2021/06/18 03:50:22;;;;;;;11.57;7.15;;;17.20;79.10;;;;;;4962111;28;20039;-75
2021/06/18 03:52:48;;;;;;;10.95;6.40;;;17.20;77.50;;;;;;4962286;28;20026;-75
2021/06/18 03:55:14;;;;;;;9.30;5.97;;;17.20;77.30;;;;;;4961674;29;20031;-76
2021/06/18 03:57:44;;;;;;;8.82;5.35;;;17.20;77.70;;;;;;4959171;29;20043;-75
2021/06/18 04:00:11;;;;;;;10.60;5.32;;;17.20;76.50;;;;;;4956886;29;20039;-75
2021/06/18 04:02:37;;;;;;;9.18;5.35;;;17.20;77.30;;;;;;4962108;28;20031;-75
2021/06/18 04:05:04;;;;;;;11.23;5.60;;;17.20;77.50;;;;;;4961776;28;20035;-75
2021/06/18 04:07:31;;;;;;;8.35;5.00;;;17.30;77.90;;;;;;4960576;29;20075;-75
2021/06/18 04:09:58;;;;;;;10.75;5.28;;;17.20;79.30;;;;;;4961476;28;20085;-76
2021/06/18 04:12:24;;;;;;;7.60;4.70;;;17.20;79.10;;;;;;4961970;28;20023;-75
2021/06/18 04:14:50;;;;;;;9.13;4.80;;;17.20;78.50;;;;;;4961668;28;20035;-75
2021/06/18 04:17:16;;;;;;;8.50;4.60;;;17.20;77.30;;;;;;4961886;28;20019;-75
2021/06/18 04:19:44;;;;;;;9.48;5.07;;;17.20;78.70;;;;;;4958892;28;20609;-75
2021/06/18 04:22:14;;;;;;;7.97;4.72;;;17.20;78.40;;;;;;4951854;29;20396;-78
2021/06/18 04:24:40;;;;;;;8.20;4.75;;;17.20;78.90;;;;;;4959801;29;20517;-75
2021/06/18 04:27:06;;;;;;;8.15;4.68;;;17.20;79.20;;;;;;4959592;28;20023;-74
2021/06/18 04:29:31;;;;;;;8.40;5.40;;;17.20;80.00;;;;;;4960104;29;20438;-74
2021/06/18 04:31:57;;;;;;;8.63;4.80;;;17.20;80.10;;;;;;4960223;29;20031;-75
2021/06/18 04:34:23;;;;;;;9.68;4.68;;;17.20;79.70;;;;;;4957215;29;20019;-75
2021/06/18 04:36:49;;;;;;;9.40;5.03;;;17.10;78.50;;;;;;4961389;28;20042;-75
2021/06/18 04:39:15;;;;;;;7.82;4.97;;;17.20;79.00;;;;;;4960859;28;20028;-75
2021/06/18 04:41:42;;;;;;;8.77;5.28;;;17.20;78.50;;;;;;4961232;28;20035;-75
2021/06/18 04:44:08;;;;;;;8.30;4.57;;;17.20;81.00;;;;;;4960873;28;20039;-75
2021/06/18 04:46:35;;;;;;;10.13;5.05;;;17.20;80.00;;;;;;4961201;29;20046;-75
2021/06/18 04:49:00;;;;;;;9.50;4.93;;;17.20;78.90;;;;;;4960986;28;20494;-75
2021/06/18 04:51:26;;;;;;;8.50;4.35;;;17.20;78.50;;;;;;4961139;28;20045;-74
2021/06/18 04:53:54;;;;;;;8.20;4.90;;;17.20;78.80;;;;;;4948102;28;20031;-74
2021/06/18 04:56:21;;;;;;;10.70;5.10;;;17.20;79.30;;;;;;4959540;29;20019;-74
2021/06/18 04:58:47;;;;;;;7.95;4.80;;;17.20;79.80;;;;;;4951548;28;20079;-75
2021/06/18 05:01:13;;;;;;;9.70;5.25;;;17.20;79.40;;;;;;4950263;29;20024;-74
2021/06/18 05:03:38;;;;;;;9.15;5.35;;;17.20;78.90;;;;;;4960698;29;20504;-74
2021/06/18 05:06:04;;;;;;;9.18;5.47;;;17.20;80.10;;;;;;4960937;29;20023;-74
2021/06/18 05:08:30;;;;;;;7.53;4.72;;;17.20;79.40;;;;;;4960695;28;20023;-72
2021/06/18 05:10:56;;;;;;;8.63;5.65;;;17.20;80.20;;;;;;4960460;28;20015;-79
2021/06/18 05:13:23;;;;;;;9.85;5.47;;;17.20;80.00;;;;;;4959215;29;20031;-75
2021/06/18 05:15:49;;;;;;;8.48;5.35;;;17.20;80.30;;;;;;4960705;28;20086;-75
2021/06/18 05:18:14;;;;;;;10.40;6.22;;;17.20;80.10;;;;;;4959183;29;20119;-75
2021/06/18 05:20:41;;;;;;;8.95;5.55;;;17.20;80.50;;;;;;4960641;28;20059;-76
2021/06/18 05:23:09;;;;;;;9.07;5.65;;;17.20;80.20;;;;;;4960416;28;20027;-78
2021/06/18 05:25:35;;;;;;;11.32;5.55;;;17.20;80.70;;;;;;4960047;28;20033;-69
2021/06/18 05:28:01;;;;;;;8.70;5.05;;;17.20;80.20;;;;;;4960318;28;20030;-73
2021/06/18 05:30:27;;;;;;;8.07;5.82;;;17.20;80.40;;;;;;4960366;28;20027;-71
2021/06/18 05:32:53;;;;;;;7.10;4.82;;;17.20;80.80;;;;;;4958909;29;20027;-70
2021/06/18 05:35:19;;;;;;;8.70;5.20;;;17.20;81.60;;;;;;4956172;28;20058;-71
2021/06/18 05:37:46;;;;;;;7.45;4.47;;;17.20;80.00;;;;;;4959333;28;20035;-71
2021/06/18 05:40:12;;;;;;;7.97;4.45;;;17.20;80.50;;;;;;4948688;28;20455;-78
2021/06/18 05:42:38;;;;;;;7.40;4.38;;;17.20;80.10;;;;;;4958624;28;20051;-73
2021/06/18 05:45:06;;;;;;;6.93;4.25;;;17.30;79.60;;;;;;4960029;29;20470;-73
2021/06/18 05:47:32;;;;;;;5.88;3.90;;;17.30;80.60;;;;;;4959881;28;20015;-72
2021/06/18 05:49:57;;;;;;;6.57;4.00;;;17.30;81.40;;;;;;4960267;28;20032;-73
2021/06/18 05:52:23;;;;;;;7.28;3.80;;;17.30;81.00;;;;;;4959800;29;20046;-73
2021/06/18 05:54:49;;;;;;;6.45;3.55;;;17.30;81.60;;;;;;4959671;28;20031;-73
2021/06/18 05:57:15;;;;;;;5.63;3.33;;;17.30;80.00;;;;;;4959737;28;20082;-72
2021/06/18 05:59:41;;;;;;;6.03;3.08;;;17.40;82.70;;;;;;4942661;28;20047;-71
2021/06/18 06:02:06;;;;;;;6.30;3.20;;;17.40;80.90;;;;;;4956592;29;20058;-74
2021/06/18 06:04:32;;;;;;;5.47;3.03;;;17.40;81.20;;;;;;4959695;28;20133;-73
2021/06/18 06:06:58;;;;;;;5.82;3.38;;;17.40;80.80;;;;;;4955345;28;20024;-73
2021/06/18 06:09:24;;;;;;;5.65;3.35;;;17.40;81.90;;;;;;4950794;29;20561;-73
2021/06/18 06:11:50;;;;;;;5.05;2.80;;;17.40;83.20;;;;;;4959608;28;20031;-73
2021/06/18 06:14:17;;;;;;;5.43;3.03;;;17.40;81.50;;;;;;4959632;29;20038;-73
2021/06/18 06:16:45;;;;;;;4.57;2.50;;;17.50;80.60;;;;;;4959463;28;20023;-73
2021/06/18 06:19:11;;;;;;;4.78;2.47;;;17.50;80.20;;;;;;4959537;29;20047;-73
2021/06/18 06:21:37;;;;;;;4.88;2.63;;;17.50;81.00;;;;;;4958183;29;20023;-73
2021/06/18 06:24:03;;;;;;;5.57;2.70;;;17.60;81.60;;;;;;4959226;28;20058;-73
2021/06/18 06:26:29;;;;;;;5.68;2.60;;;17.60;80.90;;;;;;4958050;29;20024;-73
2021/06/18 06:28:55;;;;;;;5.70;2.78;;;17.50;81.50;;;;;;4958134;29;20489;-73
2021/06/18 06:31:21;;;;;;;5.28;2.70;;;17.60;81.60;;;;;;4959458;28;20023;-73
2021/06/18 06:33:46;;;;;;;6.05;2.50;;;17.60;81.30;;;;;;4954981;29;20059;-73
2021/06/18 06:36:12;;;;;;;4.82;2.42;;;17.60;81.60;;;;;;4958709;29;20098;-73
2021/06/18 06:38:38;;;;;;;4.60;2.67;;;17.60;81.90;;;;;;4957921;29;20027;-73
2021/06/18 06:41:05;;;;;;;5.47;2.97;;;17.60;81.90;;;;;;4959147;28;20020;-73
2021/06/18 06:43:30;;;;;;;5.15;2.42;;;17.60;81.60;;;;;;4959041;28;20054;-73
2021/06/18 06:45:56;;;;;;;4.03;2.03;;;17.70;82.50;;;;;;4959325;28;20028;-73
2021/06/18 06:48:22;;;;;;;4.20;2.20;;;17.70;81.70;;;;;;4959843;28;20019;-73
2021/06/18 06:50:49;;;;;;;4.00;2.30;;;17.70;81.70;;;;;;4952880;29;20027;-73
2021/06/18 06:53:15;;;;;;;4.50;2.33;;;17.80;81.70;;;;;;4965700;28;20371;-73
2021/06/18 06:55:40;;;;;;;5.63;2.50;;;17.80;80.90;;;;;;4965427;28;20126;-73
2021/06/18 06:58:06;;;;;;;5.45;2.78;;;17.80;82.10;;;;;;4959600;28;20028;-73
2021/06/18 07:00:33;;;;;;;4.80;2.35;;;17.90;81.40;;;;;;4952759;28;20023;-73
2021/06/18 07:02:58;;;;;;;3.88;2.22;;;17.90;81.60;;;;;;4965676;28;20106;-73
2021/06/18 07:05:24;;;;;;;3.42;1.77;;;17.90;81.60;;;;;;4965369;28;20066;-73
2021/06/18 07:07:50;;;;;;;4.15;1.48;;;18.00;81.60;;;;;;4965642;28;20454;-73
2021/06/18 07:10:17;;;;;;;3.40;2.00;;;18.00;82.00;;;;;;4963772;29;20038;-73
2021/06/18 07:12:43;;;;;;;3.65;1.45;;;18.00;81.30;;;;;;4965703;28;21039;-74
2021/06/18 07:15:09;;;;;;;4.75;1.70;;;18.00;81.40;;;;;;4965329;28;20153;-73
2021/06/18 07:17:34;;;;;;;2.95;1.40;;;18.00;81.20;;;;;;4965415;28;20030;-73
2021/06/18 07:20:03;;;;;;;3.80;1.48;;;18.10;81.30;;;;;;4965300;28;20031;-73
2021/06/18 07:22:32;;;;;;;3.28;1.30;;;18.10;80.50;;;;;;4965578;29;20034;-73
2021/06/18 07:24:58;;;;;;;4.03;1.40;;;18.10;82.10;;;;;;4964839;28;20024;-73
2021/06/18 07:27:25;;;;;;;3.00;1.58;;;18.20;81.40;;;;;;4965372;28;20023;-73
2021/06/18 07:29:55;;;;;;;3.20;1.42;;;18.20;81.30;;;;;;4965327;28;20035;-73
2021/06/18 07:32:24;;;;;;;2.63;1.15;;;18.20;81.10;;;;;;4965330;28;20023;-73
2021/06/18 07:34:50;;;;;;;2.38;1.33;;;18.20;81.40;;;;;;4960492;28;20162;-73
2021/06/18 07:37:16;;;;;;;2.17;1.10;;;18.30;80.30;;;;;;4965288;28;20075;-73
2021/06/18 07:39:42;;;;;;;4.95;1.40;;;18.30;80.20;;;;;;4964985;28;20026;-74
2021/06/18 07:42:08;;;;;;;3.15;1.33;;;18.20;81.30;;;;;;4965123;28;20562;-73
2021/06/18 07:44:38;;;;;;;2.92;1.60;;;18.20;81.00;;;;;;4965261;28;20027;-73
2021/06/18 07:47:07;;;;;;;2.70;1.23;;;18.20;79.90;;;;;;4965177;28;20035;-73
2021/06/18 07:49:34;;;;;;;3.55;1.02;;;18.20;79.70;;;;;;4965439;28;20047;-73
2021/06/18 07:52:00;;;;;;;2.20;1.13;;;18.20;79.40;;;;;;4965012;28;20110;-74
2021/06/18 07:54:26;;;;;;;2.17;1.00;;;18.20;80.90;;;;;;4964936;28;20023;-74
2021/06/18 07:56:53;;;;;;;3.40;1.17;;;18.20;81.90;;;;;;4965059;28;20027;-73
2021/06/18 07:59:19;;;;;;;2.45;1.00;;;18.20;80.10;;;;;;4951573;28;20456;-73
2021/06/18 08:01:45;;;;;;;1.88;1.10;;;18.20;80.80;;;;;;4956441;29;20046;-74
2021/06/18 08:04:10;;;;;;;4.70;1.20;;;18.10;80.40;;;;;;4961865;28;20154;-73
2021/06/18 08:06:36;;;;;;;3.05;1.20;;;18.10;81.10;;;;;;4961900;28;20050;-73
2021/06/18 08:09:04;;;;;;;3.05;1.35;;;18.10;81.10;;;;;;4961685;28;20030;-73
2021/06/18 08:11:31;;;;;;;2.92;1.35;;;18.10;81.50;;;;;;4960775;29;20031;-73
2021/06/18 08:13:57;;;;;;;3.42;1.75;;;18.10;80.80;;;;;;4953659;28;20115;-73
2021/06/18 08:16:23;;;;;;;3.90;2.10;;;18.10;81.10;;;;;;4955983;29;20035;-73
2021/06/18 08:18:49;;;;;;;3.60;2.15;;;18.10;80.30;;;;;;4961685;28;20023;-73
2021/06/18 08:21:14;;;;;;;4.15;2.00;;;18.10;81.00;;;;;;4961596;28;20046;-73
2021/06/18 08:23:40;;;;;;;4.88;2.50;;;18.10;80.30;;;;;;4961509;29;20032;-73
2021/06/18 08:26:07;;;;;;;7.50;2.95;;;18.10;80.40;;;;;;4961450;28;20031;-73
2021/06/18 08:28:33;;;;;;;4.93;2.33;;;18.10;80.00;;;;;;4961553;28;20023;-73
2021/06/18 08:30:59;;;;;;;3.97;2.00;;;18.10;80.40;;;;;;4961437;28;20491;-73
2021/06/18 08:33:25;;;;;;;3.75;1.85;;;18.10;80.70;;;;;;4961445;28;20122;-73
2021/06/18 08:35:51;;;;;;;4.38;2.47;;;18.10;79.90;;;;;;4945148;29;20050;-73
2021/06/18 08:38:17;;;;;;;5.03;2.70;;;18.10;80.30;;;;;;4961568;28;20383;-73
2021/06/18 08:40:43;;;;;;;5.30;2.45;;;18.10;80.40;;;;;;4960930;28;20111;-73
2021/06/18 08:43:09;;;;;;;4.03;2.58;;;18.10;81.80;;;;;;4961295;28;20043;-73
2021/06/18 08:45:36;;;;;;;4.75;3.00;;;18.10;81.20;;;;;;4948257;28;20038;-73
2021/06/18 08:48:01;;;;;;;4.40;2.53;;;18.10;80.60;;;;;;4961275;28;20147;-73
2021/06/18 08:50:28;;;;;;;4.53;2.70;;;18.10;80.50;;;;;;4959774;29;20118;-73
2021/06/18 08:52:57;;;;;;;4.50;2.38;;;18.20;81.40;;;;;;4959837;29;20493;-73
2021/06/18 08:55:27;;;;;;;4.53;2.20;;;18.20;81.90;;;;;;4960621;28;20034;-73
2021/06/18 08:57:55;;;;;;;4.07;2.30;;;18.20;80.90;;;;;;4956445;28;20444;-73
2021/06/18 09:00:23;;;;;;;4.35;2.67;;;18.20;81.10;;;;;;4946945;29;20031;-74
2021/06/18 09:02:49;;;;;;;4.57;3.05;;;18.30;81.10;;;;;;4961126;28;20050;-73
2021/06/18 09:05:15;;;;;;;5.10;2.60;;;18.30;81.10;;;;;;4960684;28;20371;-74
2021/06/18 09:07:47;;;;;;;6.35;3.60;;;18.30;81.10;;;;;;4960943;28;20047;-73
2021/06/18 09:10:39;;;;;;;4.30;2.53;;;18.40;81.10;;;;;;4960371;29;20031;-74
2021/06/18 09:13:14;;;;;;;4.18;2.17;;;18.40;81.70;;;;;;4958953;28;20023;-74
2021/06/18 09:15:43;;;;;;;5.00;2.40;;;18.40;82.00;;;;;;4951060;29;20087;-75
2021/06/18 09:18:30;;;;;;;4.95;2.83;;;18.30;81.90;;;;;;4960486;28;20376;-72
2021/06/18 09:21:14;;;;;;;5.95;3.00;;;18.30;81.10;;;;;;4966445;28;20046;-72
2021/06/18 09:23:54;;;;;;;5.22;2.60;;;18.40;81.70;;;;;;4957436;28;20023;-72
2021/06/18 09:26:29;;;;;;;8.00;2.83;;;18.30;81.60;;;;;;4952162;29;20027;-72
2021/06/18 09:29:03;;;;;;;5.22;3.42;;;18.40;82.00;;;;;;4957792;29;20024;-72
2021/06/18 09:31:33;;;;;;;8.75;3.42;;;18.40;81.80;;;;;;4960282;28;20517;-72
2021/06/18 09:34:00;;;;;;;7.70;4.88;;;18.40;81.30;;;;;;4949367;28;20023;-72
2021/06/18 09:36:25;;;;;;;5.32;3.65;;;18.40;82.30;;;;;;4949769;28;20035;-72
2021/06/18 09:38:56;;;;;;;8.25;4.47;;;18.30;82.30;;;;;;4940536;29;20032;-72
2021/06/18 09:41:38;;;;;;;7.10;4.63;;;18.40;81.30;;;;;;4954873;29;20038;-72
2021/06/18 09:44:10;;;;;;;7.68;4.97;;;18.40;80.90;;;;;;4947549;29;20058;-72
2021/06/18 09:46:48;;;;;;;8.20;5.20;;;18.40;81.50;;;;;;4954250;29;20051;-71
2021/06/18 09:49:32;;;;;;;7.15;5.07;;;18.40;80.90;;;;;;4958675;28;20031;-73
2021/06/18 09:52:26;;;;;;;9.55;5.45;;;18.50;81.10;;;;;;4956349;29;20027;-73
2021/06/18 09:54:53;;;;;;;6.88;4.82;;;18.50;81.50;;;;;;4955232;28;20043;-73
2021/06/18 09:57:42;;;;;;;6.55;3.92;;;18.50;81.50;;;;;;4957684;29;20023;-76
2021/06/18 10:00:16;;;;;;;6.97;4.78;;;18.50;81.50;;;;;;4956224;29;20031;-73
2021/06/18 10:02:42;;;;;;;7.13;4.05;;;18.50;81.30;;;;;;4958854;28;20054;-73
2021/06/18 10:05:12;;;;;;;7.63;3.67;;;18.50;80.90;;;;;;4959042;28;20387;-73
2021/06/18 10:07:40;;;;;;;9.30;3.80;;;18.40;80.70;;;;;;4945637;29;20549;-72
2021/06/18 10:10:10;;;;;;;5.68;3.42;;;18.50;80.20;;;;;;4959395;28;20026;-73
2021/06/18 10:12:37;;;;;;;5.50;3.45;;;18.50;81.20;;;;;;4959835;28;20019;-73
2021/06/18 10:15:07;;;;;;;6.82;4.03;;;18.50;81.30;;;;;;4959550;28;20038;-73
2021/06/18 10:17:35;;;;;;;7.50;3.70;;;18.60;80.40;;;;;;4958244;29;20078;-73
2021/06/18 10:20:03;;;;;;;8.25;4.25;;;18.60;81.10;;;;;;4959238;28;20035;-73
2021/06/18 10:22:32;;;;;;;7.20;4.50;;;18.60;80.50;;;;;;4958269;29;20035;-73
2021/06/18 10:25:04;;;;;;;6.38;4.00;;;18.70;80.10;;;;;;4957191;28;20115;-73
2021/06/18 10:27:50;;;;;;;9.60;4.00;;;18.80;80.00;;;;;;4959620;28;20019;-74
2021/06/18 10:30:26;;;;;;;9.23;4.50;;;18.90;80.20;;;;;;4947429;29;20120;-73
2021/06/18 10:32:53;;;;;;;7.60;4.38;;;19.00;80.90;;;;;;4959260;28;20023;-73
2021/06/18 10:35:52;;;;;;;6.70;3.72;;;19.10;80.50;;;;;;4951432;28;20026;-73
2021/06/18 10:38:36;;;;;;;4.57;2.90;;;19.30;80.20;;;;;;4946508;29;20486;-73
2021/06/18 10:41:17;;;;;;;7.35;3.55;;;19.40;79.80;;;;;;4959015;28;20030;-73
2021/06/18 10:43:49;;;;;;;8.15;3.83;;;19.40;79.20;;;;;;4958442;28;20510;-73
2021/06/18 10:46:37;;;;;;;5.65;3.25;;;19.50;78.80;;;;;;4957849;29;20031;-73
2021/06/18 10:49:14;;;;;;;8.85;3.63;;;19.40;79.00;;;;;;4959028;28;20482;-72
2021/06/18 10:51:45;;;;;;;7.57;3.13;;;19.50;78.70;;;;;;4959083;28;20035;-72
2021/06/18 10:54:29;;;;;;;8.93;3.45;;;19.40;78.10;;;;;;4958838;28;20031;-72
2021/06/18 10:56:59;;;;;;;7.40;4.25;;;19.30;78.20;;;;;;4949016;29;20031;-75
2021/06/18 10:59:32;;;;;;;6.50;4.20;;;19.30;77.90;;;;;;4955569;28;20024;-74
2021/06/18 11:02:00;;;;;;;8.43;4.63;;;19.20;78.10;;;;;;4950563;29;20035;-74
2021/06/18 11:04:42;;;;;;;7.70;4.10;;;19.10;78.30;;;;;;4957517;29;20055;-77
2021/06/18 11:07:35;;;;;;;9.38;4.97;;;19.10;78.20;;;;;;4959256;28;20035;-79
2021/06/18 11:10:14;;;;;;;9.02;5.05;;;19.00;78.10;;;;;;4958915;28;20102;-77
2021/06/18 11:12:48;;;;;;;10.63;5.68;;;19.00;78.00;;;;;;4959020;28;20522;-76
2021/06/18 11:15:16;;;;;;;10.20;5.57;;;19.10;78.20;;;;;;4958809;28;20110;-76
2021/06/18 11:18:02;;;;;;;11.15;6.85;;;19.10;78.50;;;;;;4958612;29;20031;-76
2021/06/18 11:20:34;;;;;;;11.80;6.32;;;19.10;78.40;;;;;;4958304;28;20027;-82
2021/06/18 11:23:23;;;;;;;12.30;7.07;;;19.00;78.30;;;;;;4959004;29;20557;-77
2021/06/18 11:26:04;;;;;;;13.05;7.20;;;18.90;78.00;;;;;;4946979;29;20118;-77
2021/06/18 11:28:32;;;;;;;12.40;7.45;;;19.00;78.70;;;;;;4958417;28;20019;-78
2021/06/18 11:31:21;;;;;;;14.88;7.40;;;18.90;78.30;;;;;;4958431;28;21721;-79
2021/06/18 11:34:06;;;;;;;14.38;7.93;;;18.90;78.20;;;;;;4954712;28;20028;-78
2021/06/18 11:36:38;;;;;;;14.02;7.45;;;18.90;78.70;;;;;;4955114;29;20024;-78
2021/06/18 11:39:04;;;;;;;14.88;7.68;;;18.90;77.90;;;;;;4960730;29;20107;-76
2021/06/18 11:41:40;;;;;;;14.32;8.27;;;18.90;78.20;;;;;;4960492;29;20043;-77
2021/06/18 11:44:08;;;;;;;15.75;9.20;;;18.90;78.50;;;;;;4960205;29;20047;-79
2021/06/18 11:46:38;;;;;;;14.38;8.70;;;18.90;78.30;;;;;;4961945;28;20039;-77
2021/06/18 11:49:13;;;;;;;18.10;8.75;;;18.90;78.80;;;;;;4961001;28;20086;-78
2021/06/18 11:51:39;;;;;;;18.02;9.27;;;18.80;78.60;;;;;;4962000;28;20494;-79
2021/06/18 11:54:06;;;;;;;17.33;9.18;;;18.90;78.60;;;;;;4960842;28;20560;-78
2021/06/18 11:56:34;;;;;;;15.07;9.30;;;18.80;78.50;;;;;;4961905;29;20430;-78
2021/06/18 11:59:00;;;;;;;16.13;8.52;;;18.80;78.60;;;;;;4960059;28;20054;-78
2021/06/18 12:01:30;;;;;;;19.88;9.50;;;18.70;78.60;;;;;;4954693;28;20024;-78
2021/06/18 12:04:00;;;;;;;17.90;9.63;;;18.70;79.00;;;;;;4959177;29;20027;-78
2021/06/18 12:06:35;;;;;;;24.77;10.10;;;18.70;78.40;;;;;;4961963;28;20475;-78
2021/06/18 12:09:04;;;;;;;20.42;11.15;;;18.70;78.60;;;;;;4960165;28;20054;-77
2021/06/18 12:11:38;;;;;;;19.40;10.50;;;18.70;78.60;;;;;;4957398;29;20031;-78
2021/06/18 12:14:08;;;;;;;21.83;11.85;;;18.60;78.50;;;;;;4959488;29;20088;-78
2021/06/18 12:16:36;;;;;;;19.80;11.18;;;18.60;78.80;;;;;;4956168;28;20019;-78
2021/06/18 12:19:31;;;;;;;18.98;9.73;;;18.60;78.40;;;;;;4960510;28;20035;-77
2021/06/18 12:21:59;;;;;;;17.90;9.52;;;18.60;78.30;;;;;;4957959;28;20150;-77
2021/06/18 12:24:33;;;;;;;23.95;9.35;;;18.70;79.00;;;;;;4961020;28;20548;-77
2021/06/18 12:27:00;;;;;;;18.95;10.93;;;18.80;79.10;;;;;;4960666;28;20031;-77
2021/06/18 12:29:27;;;;;;;18.40;10.55;;;18.80;78.70;;;;;;4961646;28;20106;-78
2021/06/18 12:31:55;;;;;;;22.05;13.85;;;18.90;78.60;;;;;;4960125;28;20030;-77
2021/06/18 12:34:22;;;;;;;27.85;17.40;;;18.90;78.20;;;;;;4957611;28;20027;-76
2021/06/18 12:36:58;;;;;;;21.23;9.68;;;18.90;78.00;;;;;;4960284;29;20119;-77
2021/06/18 12:39:24;;;;;;;16.42;9.82;;;18.80;77.50;;;;;;4960188;28;20027;-77
2021/06/18 12:41:50;;;;;;;19.50;9.20;;;18.80;77.70;;;;;;4960242;28;20371;-77
2021/06/18 12:44:16;;;;;;;13.65;8.10;;;18.80;78.30;;;;;;4960249;28;20047;-77
2021/06/18 12:46:56;;;;;;;16.85;8.73;;;18.80;78.00;;;;;;4959343;28;20031;-77
2021/06/18 12:49:28;;;;;;;22.73;10.43;;;18.80;78.20;;;;;;4958896;29;20399;-77
2021/06/18 12:52:08;;;;;;;21.30;9.48;;;18.90;77.70;;;;;;4961316;28;20031;-77